sensor_id;sensor_type;location;lat;lon;timestamp;temperature;humidity
15328;DHT22;7764;51.430;6.840;2023-05-14T00:00:04;14.40;99.90
15328;DHT22;7764;51.430;6.840;2023-05-14T00:02:32;14.50;99.90
15328;DHT22;7764;51.430;6.840;2023-05-14T00:05:00;14.40;99.90
15328;DHT22;7764;51.430;6.840;2023-05-14T00:07:26;14.40;99.90
15328;DHT22;7764;51.430;6.840;2023-05-14T00:09:55;14.40;99.90
15328;DHT22;7764;51.430;6.840;2023-05-14T00:12:22;14.30;99.90
15328;DHT22;7764;51.430;6.840;2023-05-14T00:14:48;14.20;99.90
15328;DHT22;7764;51.430;6.840;2023-05-14T00:17:15;14.00;99.90
15328;DHT22;7764;51.430;6.840;2023-05-14T00:19:42;13.90;99.90
15328;DHT22;7764;51.430;6.840;2023-05-14T00:22:10;13.90;99.90
15328;DHT22;7764;51.430;6.840;2023-05-14T00:24:37;13.80;99.90
15328;DHT22;7764;51.430;6.840;2023-05-14T00:27:04;13.80;99.90
15328;DHT22;7764;51.430;6.840;2023-05-14T00:29:32;13.70;99.90
15328;DHT22;7764;51.430;6.840;2023-05-14T00:31:58;13.70;99.90
15328;DHT22;7764;51.430;6.840;2023-05-14T00:34:25;13.70;99.90
15328;DHT22;7764;51.430;6.840;2023-05-14T00:36:52;13.60;99.90
15328;DHT22;7764;51.430;6.840;2023-05-14T00:39:20;13.60;99.90
15328;DHT22;7764;51.430;6.840;2023-05-14T00:41:47;13.50;99.90
15328;DHT22;7764;51.430;6.840;2023-05-14T00:44:14;13.50;99.90
15328;DHT22;7764;51.430;6.840;2023-05-14T00:46:41;13.50;99.90
15328;DHT22;7764;51.430;6.840;2023-05-14T00:49:08;13.50;99.90
15328;DHT22;7764;51.430;6.840;2023-05-14T00:51:35;13.50;99.90
15328;DHT22;7764;51.430;6.840;2023-05-14T00:54:02;13.40;99.90
15328;DHT22;7764;51.430;6.840;2023-05-14T00:56:30;13.40;99.90
15328;DHT22;7764;51.430;6.840;2023-05-14T00:58:57;13.40;99.90
15328;DHT22;7764;51.430;6.840;2023-05-14T01:01:24;13.40;99.90
15328;DHT22;7764;51.430;6.840;2023-05-14T01:03:53;13.30;99.90
15328;DHT22;7764;51.430;6.840;2023-05-14T01:06:26;13.40;99.90
15328;DHT22;7764;51.430;6.840;2023-05-14T01:09:02;13.30;99.90
15328;DHT22;7764;51.430;6.840;2023-05-14T01:11:39;13.30;99.90
15328;DHT22;7764;51.430;6.840;2023-05-14T01:14:13;13.30;99.90
15328;DHT22;7764;51.430;6.840;2023-05-14T01:16:44;13.20;99.90
15328;DHT22;7764;51.430;6.840;2023-05-14T01:19:21;13.10;99.90
15328;DHT22;7764;51.430;6.840;2023-05-14T01:21:49;13.10;99.90
15328;DHT22;7764;51.430;6.840;2023-05-14T01:24:16;13.10;99.90
15328;DHT22;7764;51.430;6.840;2023-05-14T01:26:43;13.00;99.90
15328;DHT22;7764;51.430;6.840;2023-05-14T01:29:14;13.00;99.90
15328;DHT22;7764;51.430;6.840;2023-05-14T01:31:44;13.10;99.90
15328;DHT22;7764;51.430;6.840;2023-05-14T01:34:13;13.10;99.90
15328;DHT22;7764;51.430;6.840;2023-05-14T01:36:42;13.10;99.90
15328;DHT22;7764;51.430;6.840;2023-05-14T01:39:11;13.10;99.90
15328;DHT22;7764;51.430;6.840;2023-05-14T01:41:41;13.10;99.90
15328;DHT22;7764;51.430;6.840;2023-05-14T01:44:08;13.00;99.90
15328;DHT22;7764;51.430;6.840;2023-05-14T01:46:35;13.00;99.90
15328;DHT22;7764;51.430;6.840;2023-05-14T01:49:02;13.00;99.90
15328;DHT22;7764;51.430;6.840;2023-05-14T01:51:29;13.00;99.90
15328;DHT22;7764;51.430;6.840;2023-05-14T01:53:56;12.90;99.90
15328;DHT22;7764;51.430;6.840;2023-05-14T01:56:24;12.90;99.90
15328;DHT22;7764;51.430;6.840;2023-05-14T01:58:51;12.90;99.90
15328;DHT22;7764;51.430;6.840;2023-05-14T02:01:20;12.80;99.90
15328;DHT22;7764;51.430;6.840;2023-05-14T02:03:47;12.80;99.90
15328;DHT22;7764;51.430;6.840;2023-05-14T02:06:14;12.60;99.90
15328;DHT22;7764;51.430;6.840;2023-05-14T02:08:41;12.60;99.90
15328;DHT22;7764;51.430;6.840;2023-05-14T02:11:07;12.60;99.90
15328;DHT22;7764;51.430;6.840;2023-05-14T02:13:36;12.50;99.90
15328;DHT22;7764;51.430;6.840;2023-05-14T02:16:03;12.40;99.90
15328;DHT22;7764;51.430;6.840;2023-05-14T02:18:30;12.50;99.90
15328;DHT22;7764;51.430;6.840;2023-05-14T02:20:57;12.50;99.90
15328;DHT22;7764;51.430;6.840;2023-05-14T02:23:24;12.50;99.90
15328;DHT22;7764;51.430;6.840;2023-05-14T02:25:50;12.50;99.90
15328;DHT22;7764;51.430;6.840;2023-05-14T02:28:17;12.50;99.90
15328;DHT22;7764;51.430;6.840;2023-05-14T02:30:45;12.50;99.90
15328;DHT22;7764;51.430;6.840;2023-05-14T02:33:12;12.50;99.90
15328;DHT22;7764;51.430;6.840;2023-05-14T02:35:39;12.40;99.90
15328;DHT22;7764;51.430;6.840;2023-05-14T02:38:06;12.30;99.90
15328;DHT22;7764;51.430;6.840;2023-05-14T02:40:33;12.20;99.90
15328;DHT22;7764;51.430;6.840;2023-05-14T02:42:59;12.10;99.90
15328;DHT22;7764;51.430;6.840;2023-05-14T02:45:26;12.10;99.90
15328;DHT22;7764;51.430;6.840;2023-05-14T02:47:54;12.00;99.90
15328;DHT22;7764;51.430;6.840;2023-05-14T02:50:21;12.00;99.90
15328;DHT22;7764;51.430;6.840;2023-05-14T02:52:48;12.10;99.90
15328;DHT22;7764;51.430;6.840;2023-05-14T02:55:15;12.10;99.90
15328;DHT22;7764;51.430;6.840;2023-05-14T02:57:42;12.10;99.90
15328;DHT22;7764;51.430;6.840;2023-05-14T03:00:10;12.10;99.90
15328;DHT22;7764;51.430;6.840;2023-05-14T03:02:37;12.10;99.90
15328;DHT22;7764;51.430;6.840;2023-05-14T03:05:06;12.10;99.90
15328;DHT22;7764;51.430;6.840;2023-05-14T03:07:33;12.10;99.90
15328;DHT22;7764;51.430;6.840;2023-05-14T03:10:00;12.00;99.90
15328;DHT22;7764;51.430;6.840;2023-05-14T03:12:27;12.10;99.90
15328;DHT22;7764;51.430;6.840;2023-05-14T03:14:54;12.10;99.90
15328;DHT22;7764;51.430;6.840;2023-05-14T03:17:21;12.10;99.90
15328;DHT22;7764;51.430;6.840;2023-05-14T03:19:48;12.10;99.90
15328;DHT22;7764;51.430;6.840;2023-05-14T03:22:16;12.10;99.90
15328;DHT22;7764;51.430;6.840;2023-05-14T03:24:43;12.10;99.90
15328;DHT22;7764;51.430;6.840;2023-05-14T03:27:10;12.00;99.90
15328;DHT22;7764;51.430;6.840;2023-05-14T03:29:37;11.90;99.90
15328;DHT22;7764;51.430;6.840;2023-05-14T03:32:05;12.00;99.90
15328;DHT22;7764;51.430;6.840;2023-05-14T03:34:32;12.00;99.90
15328;DHT22;7764;51.430;6.840;2023-05-14T03:36:59;12.10;99.90
15328;DHT22;7764;51.430;6.840;2023-05-14T03:39:27;12.10;99.90
15328;DHT22;7764;51.430;6.840;2023-05-14T03:41:54;12.10;99.90
15328;DHT22;7764;51.430;6.840;2023-05-14T03:44:23;12.20;99.90
15328;DHT22;7764;51.430;6.840;2023-05-14T03:46:50;12.20;99.90
15328;DHT22;7764;51.430;6.840;2023-05-14T03:49:16;12.10;99.90
15328;DHT22;7764;51.430;6.840;2023-05-14T03:51:43;11.90;99.90
15328;DHT22;7764;51.430;6.840;2023-05-14T03:54:10;12.00;99.90
15328;DHT22;7764;51.430;6.840;2023-05-14T03:56:38;11.90;99.90
15328;DHT22;7764;51.430;6.840;2023-05-14T03:59:05;11.90;99.90
15328;DHT22;7764;51.430;6.840;2023-05-14T04:01:32;11.90;99.90
15328;DHT22;7764;51.430;6.840;2023-05-14T04:03:59;11.90;99.90
15328;DHT22;7764;51.430;6.840;2023-05-14T04:06:26;12.00;99.90
15328;DHT22;7764;51.430;6.840;2023-05-14T04:08:52;11.90;99.90
15328;DHT22;7764;51.430;6.840;2023-05-14T04:11:19;12.10;99.90
15328;DHT22;7764;51.430;6.840;2023-05-14T04:13:48;12.30;99.90
15328;DHT22;7764;51.430;6.840;2023-05-14T04:16:14;12.40;99.90
15328;DHT22;7764;51.430;6.840;2023-05-14T04:18:41;12.60;99.90
15328;DHT22;7764;51.430;6.840;2023-05-14T04:21:08;12.80;99.90
15328;DHT22;7764;51.430;6.840;2023-05-14T04:23:35;13.00;99.90
15328;DHT22;7764;51.430;6.840;2023-05-14T04:26:02;13.10;99.90
15328;DHT22;7764;51.430;6.840;2023-05-14T04:28:29;13.10;99.90
15328;DHT22;7764;51.430;6.840;2023-05-14T04:30:57;13.30;99.90
15328;DHT22;7764;51.430;6.840;2023-05-14T04:33:24;13.40;99.90
15328;DHT22;7764;51.430;6.840;2023-05-14T04:35:51;13.40;99.90
15328;DHT22;7764;51.430;6.840;2023-05-14T04:38:18;13.70;99.90
15328;DHT22;7764;51.430;6.840;2023-05-14T04:40:45;13.90;99.90
15328;DHT22;7764;51.430;6.840;2023-05-14T04:43:11;14.20;99.90
15328;DHT22;7764;51.430;6.840;2023-05-14T04:45:38;14.40;99.90
15328;DHT22;7764;51.430;6.840;2023-05-14T04:48:06;14.50;99.90
15328;DHT22;7764;51.430;6.840;2023-05-14T04:50:33;14.70;99.90
15328;DHT22;7764;51.430;6.840;2023-05-14T04:53:00;14.70;99.90
15328;DHT22;7764;51.430;6.840;2023-05-14T04:55:27;14.50;99.90
15328;DHT22;7764;51.430;6.840;2023-05-14T04:57:54;14.40;99.90
15328;DHT22;7764;51.430;6.840;2023-05-14T05:00:21;14.50;99.90
15328;DHT22;7764;51.430;6.840;2023-05-14T05:02:48;14.50;99.90
15328;DHT22;7764;51.430;6.840;2023-05-14T05:05:16;14.50;99.90
15328;DHT22;7764;51.430;6.840;2023-05-14T05:07:43;14.40;99.90
15328;DHT22;7764;51.430;6.840;2023-05-14T05:10:10;14.30;99.90
15328;DHT22;7764;51.430;6.840;2023-05-14T05:12:37;14.20;99.90
15328;DHT22;7764;51.430;6.840;2023-05-14T05:15:05;14.30;99.90
15328;DHT22;7764;51.430;6.840;2023-05-14T05:17:32;14.30;99.90
15328;DHT22;7764;51.430;6.840;2023-05-14T05:19:58;14.50;99.90
15328;DHT22;7764;51.430;6.840;2023-05-14T05:22:27;14.90;99.90
15328;DHT22;7764;51.430;6.840;2023-05-14T05:24:53;15.30;99.90
15328;DHT22;7764;51.430;6.840;2023-05-14T05:27:20;15.70;99.90
15328;DHT22;7764;51.430;6.840;2023-05-14T05:29:47;16.00;99.90
15328;DHT22;7764;51.430;6.840;2023-05-14T05:32:14;16.30;99.90
15328;DHT22;7764;51.430;6.840;2023-05-14T05:34:41;16.60;99.90
15328;DHT22;7764;51.430;6.840;2023-05-14T05:37:07;16.80;99.90
15328;DHT22;7764;51.430;6.840;2023-05-14T05:39:38;16.80;99.90
15328;DHT22;7764;51.430;6.840;2023-05-14T05:42:06;16.90;99.90
15328;DHT22;7764;51.430;6.840;2023-05-14T05:44:33;17.20;99.90
15328;DHT22;7764;51.430;6.840;2023-05-14T05:47:00;17.50;99.90
15328;DHT22;7764;51.430;6.840;2023-05-14T05:49:26;17.60;99.90
15328;DHT22;7764;51.430;6.840;2023-05-14T05:51:53;17.70;99.90
15328;DHT22;7764;51.430;6.840;2023-05-14T05:54:21;17.90;99.90
15328;DHT22;7764;51.430;6.840;2023-05-14T05:56:50;18.10;99.90
15328;DHT22;7764;51.430;6.840;2023-05-14T05:59:17;18.40;99.90
15328;DHT22;7764;51.430;6.840;2023-05-14T06:01:43;18.80;99.90
15328;DHT22;7764;51.430;6.840;2023-05-14T06:04:10;18.90;99.90
15328;DHT22;7764;51.430;6.840;2023-05-14T06:06:37;18.80;99.90
15328;DHT22;7764;51.430;6.840;2023-05-14T06:09:04;18.70;99.90
15328;DHT22;7764;51.430;6.840;2023-05-14T06:11:31;18.70;99.90
15328;DHT22;7764;51.430;6.840;2023-05-14T06:13:59;18.80;99.90
15328;DHT22;7764;51.430;6.840;2023-05-14T06:16:26;18.30;99.90
15328;DHT22;7764;51.430;6.840;2023-05-14T06:18:53;18.20;99.90
15328;DHT22;7764;51.430;6.840;2023-05-14T06:21:20;18.30;99.90
15328;DHT22;7764;51.430;6.840;2023-05-14T06:23:47;18.60;99.90
15328;DHT22;7764;51.430;6.840;2023-05-14T06:26:14;18.90;99.90
15328;DHT22;7764;51.430;6.840;2023-05-14T06:28:41;19.10;99.90
15328;DHT22;7764;51.430;6.840;2023-05-14T06:31:09;19.20;99.90
15328;DHT22;7764;51.430;6.840;2023-05-14T06:33:36;19.30;99.90
15328;DHT22;7764;51.430;6.840;2023-05-14T06:36:04;19.30;99.90
15328;DHT22;7764;51.430;6.840;2023-05-14T06:38:32;19.50;99.90
15328;DHT22;7764;51.430;6.840;2023-05-14T06:40:59;20.00;99.90
15328;DHT22;7764;51.430;6.840;2023-05-14T06:43:25;20.10;99.90
15328;DHT22;7764;51.430;6.840;2023-05-14T06:45:52;20.00;99.90
15328;DHT22;7764;51.430;6.840;2023-05-14T06:48:21;20.10;99.90
15328;DHT22;7764;51.430;6.840;2023-05-14T06:50:48;20.20;99.90
15328;DHT22;7764;51.430;6.840;2023-05-14T06:53:15;20.20;99.90
15328;DHT22;7764;51.430;6.840;2023-05-14T06:55:42;20.30;99.90
15328;DHT22;7764;51.430;6.840;2023-05-14T06:58:09;20.70;99.90
15328;DHT22;7764;51.430;6.840;2023-05-14T07:00:36;20.90;99.90
15328;DHT22;7764;51.430;6.840;2023-05-14T07:03:03;21.00;99.90
15328;DHT22;7764;51.430;6.840;2023-05-14T07:05:31;20.90;99.90
15328;DHT22;7764;51.430;6.840;2023-05-14T07:07:58;20.90;99.90
15328;DHT22;7764;51.430;6.840;2023-05-14T07:10:25;21.10;99.90
15328;DHT22;7764;51.430;6.840;2023-05-14T07:12:51;21.30;99.90
15328;DHT22;7764;51.430;6.840;2023-05-14T07:15:18;21.50;99.90
15328;DHT22;7764;51.430;6.840;2023-05-14T07:17:45;21.80;99.90
15328;DHT22;7764;51.430;6.840;2023-05-14T07:20:12;21.90;99.90
15328;DHT22;7764;51.430;6.840;2023-05-14T07:22:40;21.80;99.90
15328;DHT22;7764;51.430;6.840;2023-05-14T07:25:07;21.70;99.90
15328;DHT22;7764;51.430;6.840;2023-05-14T07:27:34;21.80;99.90
15328;DHT22;7764;51.430;6.840;2023-05-14T07:30:01;22.00;99.90
15328;DHT22;7764;51.430;6.840;2023-05-14T07:32:28;22.30;99.90
15328;DHT22;7764;51.430;6.840;2023-05-14T07:34:55;22.10;99.90
15328;DHT22;7764;51.430;6.840;2023-05-14T07:37:22;22.00;99.90
15328;DHT22;7764;51.430;6.840;2023-05-14T07:39:51;22.10;99.90
15328;DHT22;7764;51.430;6.840;2023-05-14T07:42:18;22.40;99.90
15328;DHT22;7764;51.430;6.840;2023-05-14T07:44:45;22.50;99.90
15328;DHT22;7764;51.430;6.840;2023-05-14T07:47:12;22.70;99.90
15328;DHT22;7764;51.430;6.840;2023-05-14T07:49:39;22.70;99.90
15328;DHT22;7764;51.430;6.840;2023-05-14T07:52:06;23.00;99.90
15328;DHT22;7764;51.430;6.840;2023-05-14T07:54:33;23.30;99.40
15328;DHT22;7764;51.430;6.840;2023-05-14T07:57:01;22.90;99.90
15328;DHT22;7764;51.430;6.840;2023-05-14T07:59:28;23.30;99.90
15328;DHT22;7764;51.430;6.840;2023-05-14T08:01:55;23.10;90.30
15328;DHT22;7764;51.430;6.840;2023-05-14T08:04:22;22.90;93.30
15328;DHT22;7764;51.430;6.840;2023-05-14T08:06:49;23.40;91.10
15328;DHT22;7764;51.430;6.840;2023-05-14T08:09:16;23.30;87.10
15328;DHT22;7764;51.430;6.840;2023-05-14T08:11:43;23.70;81.40
15328;DHT22;7764;51.430;6.840;2023-05-14T08:14:11;23.80;79.80
15328;DHT22;7764;51.430;6.840;2023-05-14T08:16:38;24.00;80.60
15328;DHT22;7764;51.430;6.840;2023-05-14T08:19:05;24.20;76.10
15328;DHT22;7764;51.430;6.840;2023-05-14T08:21:32;23.90;75.60
15328;DHT22;7764;51.430;6.840;2023-05-14T08:23:58;24.10;75.50
15328;DHT22;7764;51.430;6.840;2023-05-14T08:26:25;23.90;74.10
15328;DHT22;7764;51.430;6.840;2023-05-14T08:28:52;23.40;74.10
15328;DHT22;7764;51.430;6.840;2023-05-14T08:31:20;23.30;75.90
15328;DHT22;7764;51.430;6.840;2023-05-14T08:33:47;23.20;75.50
15328;DHT22;7764;51.430;6.840;2023-05-14T08:36:15;23.30;73.50
15328;DHT22;7764;51.430;6.840;2023-05-14T08:38:42;23.10;74.40
15328;DHT22;7764;51.430;6.840;2023-05-14T08:41:10;23.10;76.30
15328;DHT22;7764;51.430;6.840;2023-05-14T08:43:44;23.20;74.90
15328;DHT22;7764;51.430;6.840;2023-05-14T08:46:13;23.20;75.60
15328;DHT22;7764;51.430;6.840;2023-05-14T08:48:47;23.20;73.20
15328;DHT22;7764;51.430;6.840;2023-05-14T08:51:16;23.30;71.60
15328;DHT22;7764;51.430;6.840;2023-05-14T08:53:44;23.20;72.70
15328;DHT22;7764;51.430;6.840;2023-05-14T08:56:11;23.20;70.60
15328;DHT22;7764;51.430;6.840;2023-05-14T08:58:38;22.90;74.00
15328;DHT22;7764;51.430;6.840;2023-05-14T09:01:05;23.00;72.40
15328;DHT22;7764;51.430;6.840;2023-05-14T09:03:32;23.10;71.10
15328;DHT22;7764;51.430;6.840;2023-05-14T09:06:02;22.80;73.40
15328;DHT22;7764;51.430;6.840;2023-05-14T09:08:29;22.90;73.30
15328;DHT22;7764;51.430;6.840;2023-05-14T09:10:56;22.90;71.60
15328;DHT22;7764;51.430;6.840;2023-05-14T09:13:23;22.70;72.30
15328;DHT22;7764;51.430;6.840;2023-05-14T09:15:51;22.60;71.80
15328;DHT22;7764;51.430;6.840;2023-05-14T09:18:18;22.30;73.60
15328;DHT22;7764;51.430;6.840;2023-05-14T09:20:46;22.30;74.90
15328;DHT22;7764;51.430;6.840;2023-05-14T09:23:14;22.20;73.70
15328;DHT22;7764;51.430;6.840;2023-05-14T09:25:41;22.50;74.30
15328;DHT22;7764;51.430;6.840;2023-05-14T09:28:08;22.30;69.80
15328;DHT22;7764;51.430;6.840;2023-05-14T09:30:36;22.30;71.60
15328;DHT22;7764;51.430;6.840;2023-05-14T09:33:03;22.50;70.30
15328;DHT22;7764;51.430;6.840;2023-05-14T09:35:33;22.40;69.10
15328;DHT22;7764;51.430;6.840;2023-05-14T09:38:00;22.60;69.40
15328;DHT22;7764;51.430;6.840;2023-05-14T09:40:28;22.80;69.30
15328;DHT22;7764;51.430;6.840;2023-05-14T09:42:55;22.70;68.10
15328;DHT22;7764;51.430;6.840;2023-05-14T09:45:22;22.80;69.70
15328;DHT22;7764;51.430;6.840;2023-05-14T09:47:49;22.90;71.60
15328;DHT22;7764;51.430;6.840;2023-05-14T09:50:17;22.90;71.70
15328;DHT22;7764;51.430;6.840;2023-05-14T09:52:44;22.90;70.60
15328;DHT22;7764;51.430;6.840;2023-05-14T09:55:11;22.90;63.70
15328;DHT22;7764;51.430;6.840;2023-05-14T09:57:39;22.90;63.60
15328;DHT22;7764;51.430;6.840;2023-05-14T10:00:07;22.70;63.90
15328;DHT22;7764;51.430;6.840;2023-05-14T10:02:36;22.80;65.70
15328;DHT22;7764;51.430;6.840;2023-05-14T10:05:06;22.90;65.20
15328;DHT22;7764;51.430;6.840;2023-05-14T10:07:38;22.80;63.80
15328;DHT22;7764;51.430;6.840;2023-05-14T10:10:07;22.60;63.20
15328;DHT22;7764;51.430;6.840;2023-05-14T10:12:39;22.60;65.00
15328;DHT22;7764;51.430;6.840;2023-05-14T10:15:12;22.70;64.00
15328;DHT22;7764;51.430;6.840;2023-05-14T10:17:43;22.80;62.40
15328;DHT22;7764;51.430;6.840;2023-05-14T10:20:14;23.00;62.20
15328;DHT22;7764;51.430;6.840;2023-05-14T10:22:41;23.00;62.30
15328;DHT22;7764;51.430;6.840;2023-05-14T10:25:09;23.20;61.30
15328;DHT22;7764;51.430;6.840;2023-05-14T10:27:38;23.00;57.70
15328;DHT22;7764;51.430;6.840;2023-05-14T10:30:10;23.00;58.40
15328;DHT22;7764;51.430;6.840;2023-05-14T10:32:38;22.70;58.30
15328;DHT22;7764;51.430;6.840;2023-05-14T10:35:15;22.90;58.90
15328;DHT22;7764;51.430;6.840;2023-05-14T10:37:45;23.00;57.90
15328;DHT22;7764;51.430;6.840;2023-05-14T10:40:13;23.20;58.50
15328;DHT22;7764;51.430;6.840;2023-05-14T10:42:41;23.20;57.80
15328;DHT22;7764;51.430;6.840;2023-05-14T10:45:10;23.00;56.60
15328;DHT22;7764;51.430;6.840;2023-05-14T10:47:38;22.70;58.30
15328;DHT22;7764;51.430;6.840;2023-05-14T10:50:06;22.70;58.10
15328;DHT22;7764;51.430;6.840;2023-05-14T10:52:34;22.70;59.10
15328;DHT22;7764;51.430;6.840;2023-05-14T10:55:03;22.60;59.10
15328;DHT22;7764;51.430;6.840;2023-05-14T10:57:33;22.70;58.90
15328;DHT22;7764;51.430;6.840;2023-05-14T11:00:02;22.90;60.70
15328;DHT22;7764;51.430;6.840;2023-05-14T11:02:33;23.10;56.10
15328;DHT22;7764;51.430;6.840;2023-05-14T11:05:02;23.30;55.60
15328;DHT22;7764;51.430;6.840;2023-05-14T11:07:31;23.50;56.90
15328;DHT22;7764;51.430;6.840;2023-05-14T11:10:03;23.30;59.40
15328;DHT22;7764;51.430;6.840;2023-05-14T11:12:30;23.50;60.90
15328;DHT22;7764;51.430;6.840;2023-05-14T11:14:58;23.60;62.20
15328;DHT22;7764;51.430;6.840;2023-05-14T11:17:28;23.60;59.20
15328;DHT22;7764;51.430;6.840;2023-05-14T11:19:56;23.40;49.70
15328;DHT22;7764;51.430;6.840;2023-05-14T11:22:23;23.10;54.90
15328;DHT22;7764;51.430;6.840;2023-05-14T11:24:50;23.00;56.50
15328;DHT22;7764;51.430;6.840;2023-05-14T11:27:18;23.30;57.50
15328;DHT22;7764;51.430;6.840;2023-05-14T11:29:47;23.40;57.70
15328;DHT22;7764;51.430;6.840;2023-05-14T11:32:15;23.60;55.30
15328;DHT22;7764;51.430;6.840;2023-05-14T11:34:44;23.60;55.00
15328;DHT22;7764;51.430;6.840;2023-05-14T11:37:12;23.60;56.40
15328;DHT22;7764;51.430;6.840;2023-05-14T11:39:45;23.50;48.40
15328;DHT22;7764;51.430;6.840;2023-05-14T11:42:13;23.70;47.60
15328;DHT22;7764;51.430;6.840;2023-05-14T11:44:42;23.30;46.90
15328;DHT22;7764;51.430;6.840;2023-05-14T11:47:10;23.30;50.40
15328;DHT22;7764;51.430;6.840;2023-05-14T11:49:37;23.30;50.90
15328;DHT22;7764;51.430;6.840;2023-05-14T11:52:07;23.10;52.60
15328;DHT22;7764;51.430;6.840;2023-05-14T11:54:36;23.30;52.60
15328;DHT22;7764;51.430;6.840;2023-05-14T11:57:07;23.20;51.70
15328;DHT22;7764;51.430;6.840;2023-05-14T11:59:34;23.10;53.30
15328;DHT22;7764;51.430;6.840;2023-05-14T12:02:02;23.10;53.00
15328;DHT22;7764;51.430;6.840;2023-05-14T12:04:29;23.20;52.10
15328;DHT22;7764;51.430;6.840;2023-05-14T12:06:58;23.20;52.10
15328;DHT22;7764;51.430;6.840;2023-05-14T12:09:27;23.10;53.20
15328;DHT22;7764;51.430;6.840;2023-05-14T12:11:53;23.30;53.10
15328;DHT22;7764;51.430;6.840;2023-05-14T12:14:21;23.20;52.30
15328;DHT22;7764;51.430;6.840;2023-05-14T12:16:49;23.40;51.30
15328;DHT22;7764;51.430;6.840;2023-05-14T12:19:18;23.30;51.30
15328;DHT22;7764;51.430;6.840;2023-05-14T12:21:47;23.40;51.60
15328;DHT22;7764;51.430;6.840;2023-05-14T12:24:17;23.60;50.90
15328;DHT22;7764;51.430;6.840;2023-05-14T12:26:47;23.70;49.90
15328;DHT22;7764;51.430;6.840;2023-05-14T12:29:15;24.00;49.70
15328;DHT22;7764;51.430;6.840;2023-05-14T12:31:45;24.10;47.90
15328;DHT22;7764;51.430;6.840;2023-05-14T12:34:13;24.10;47.60
15328;DHT22;7764;51.430;6.840;2023-05-14T12:36:40;23.90;54.10
15328;DHT22;7764;51.430;6.840;2023-05-14T12:39:07;23.40;54.50
15328;DHT22;7764;51.430;6.840;2023-05-14T12:41:34;23.20;54.90
15328;DHT22;7764;51.430;6.840;2023-05-14T12:44:04;23.00;55.90
15328;DHT22;7764;51.430;6.840;2023-05-14T12:46:31;22.90;55.10
15328;DHT22;7764;51.430;6.840;2023-05-14T12:48:58;22.90;55.30
15328;DHT22;7764;51.430;6.840;2023-05-14T12:51:25;22.80;55.40
15328;DHT22;7764;51.430;6.840;2023-05-14T12:53:52;22.80;53.00
15328;DHT22;7764;51.430;6.840;2023-05-14T12:56:19;22.60;53.60
15328;DHT22;7764;51.430;6.840;2023-05-14T12:58:52;22.70;54.00
15328;DHT22;7764;51.430;6.840;2023-05-14T13:01:20;22.80;55.40
15328;DHT22;7764;51.430;6.840;2023-05-14T13:03:47;22.70;55.80
15328;DHT22;7764;51.430;6.840;2023-05-14T13:06:14;22.90;56.30
15328;DHT22;7764;51.430;6.840;2023-05-14T13:08:41;23.20;56.60
15328;DHT22;7764;51.430;6.840;2023-05-14T13:11:08;23.20;55.30
15328;DHT22;7764;51.430;6.840;2023-05-14T13:13:35;23.40;55.80
15328;DHT22;7764;51.430;6.840;2023-05-14T13:16:02;23.20;53.60
15328;DHT22;7764;51.430;6.840;2023-05-14T13:18:30;23.10;54.20
15328;DHT22;7764;51.430;6.840;2023-05-14T13:20:57;23.20;52.10
15328;DHT22;7764;51.430;6.840;2023-05-14T13:23:24;23.40;52.60
15328;DHT22;7764;51.430;6.840;2023-05-14T13:25:51;23.50;52.20
15328;DHT22;7764;51.430;6.840;2023-05-14T13:28:17;23.70;52.80
15328;DHT22;7764;51.430;6.840;2023-05-14T13:31:02;23.80;52.10
15328;DHT22;7764;51.430;6.840;2023-05-14T13:33:31;23.60;53.00
15328;DHT22;7764;51.430;6.840;2023-05-14T13:35:58;23.70;52.60
15328;DHT22;7764;51.430;6.840;2023-05-14T13:38:25;23.60;51.70
15328;DHT22;7764;51.430;6.840;2023-05-14T13:40:52;23.50;51.70
15328;DHT22;7764;51.430;6.840;2023-05-14T13:43:21;23.70;51.60
15328;DHT22;7764;51.430;6.840;2023-05-14T13:45:49;23.60;51.10
15328;DHT22;7764;51.430;6.840;2023-05-14T13:48:16;23.60;52.30
15328;DHT22;7764;51.430;6.840;2023-05-14T13:50:44;23.70;51.90
15328;DHT22;7764;51.430;6.840;2023-05-14T13:53:11;23.70;52.60
15328;DHT22;7764;51.430;6.840;2023-05-14T13:55:38;23.70;52.60
15328;DHT22;7764;51.430;6.840;2023-05-14T13:58:05;23.60;52.30
15328;DHT22;7764;51.430;6.840;2023-05-14T14:00:34;23.70;54.00
15328;DHT22;7764;51.430;6.840;2023-05-14T14:03:01;23.70;55.10
15328;DHT22;7764;51.430;6.840;2023-05-14T14:05:28;23.40;54.40
15328;DHT22;7764;51.430;6.840;2023-05-14T14:07:57;23.20;54.90
15328;DHT22;7764;51.430;6.840;2023-05-14T14:10:24;23.10;56.10
15328;DHT22;7764;51.430;6.840;2023-05-14T14:12:51;23.00;56.50
15328;DHT22;7764;51.430;6.840;2023-05-14T14:15:18;23.00;57.10
15328;DHT22;7764;51.430;6.840;2023-05-14T14:17:45;23.00;56.10
15328;DHT22;7764;51.430;6.840;2023-05-14T14:20:12;23.10;55.50
15328;DHT22;7764;51.430;6.840;2023-05-14T14:22:39;23.20;55.50
15328;DHT22;7764;51.430;6.840;2023-05-14T14:25:08;23.40;55.40
15328;DHT22;7764;51.430;6.840;2023-05-14T14:27:36;23.50;54.80
15328;DHT22;7764;51.430;6.840;2023-05-14T14:30:05;23.50;53.70
15328;DHT22;7764;51.430;6.840;2023-05-14T14:32:32;23.40;53.80
15328;DHT22;7764;51.430;6.840;2023-05-14T14:34:59;23.50;53.50
15328;DHT22;7764;51.430;6.840;2023-05-14T14:37:26;23.50;52.60
15328;DHT22;7764;51.430;6.840;2023-05-14T14:39:52;23.30;51.50
15328;DHT22;7764;51.430;6.840;2023-05-14T14:42:21;23.40;52.00
15328;DHT22;7764;51.430;6.840;2023-05-14T14:44:47;23.50;51.70
15328;DHT22;7764;51.430;6.840;2023-05-14T14:47:14;23.60;52.10
15328;DHT22;7764;51.430;6.840;2023-05-14T14:49:41;23.60;52.30
15328;DHT22;7764;51.430;6.840;2023-05-14T14:52:08;23.60;53.10
15328;DHT22;7764;51.430;6.840;2023-05-14T14:54:34;23.60;53.00
15328;DHT22;7764;51.430;6.840;2023-05-14T14:57:01;23.50;54.10
15328;DHT22;7764;51.430;6.840;2023-05-14T14:59:29;23.50;54.30
15328;DHT22;7764;51.430;6.840;2023-05-14T15:01:56;23.30;53.40
15328;DHT22;7764;51.430;6.840;2023-05-14T15:04:23;23.30;55.30
15328;DHT22;7764;51.430;6.840;2023-05-14T15:06:50;23.10;56.10
15328;DHT22;7764;51.430;6.840;2023-05-14T15:09:17;23.00;56.80
15328;DHT22;7764;51.430;6.840;2023-05-14T15:11:44;23.10;57.50
15328;DHT22;7764;51.430;6.840;2023-05-14T15:14:11;23.10;57.40
15328;DHT22;7764;51.430;6.840;2023-05-14T15:16:40;23.00;56.80
15328;DHT22;7764;51.430;6.840;2023-05-14T15:19:07;23.00;56.50
15328;DHT22;7764;51.430;6.840;2023-05-14T15:21:34;23.00;56.80
15328;DHT22;7764;51.430;6.840;2023-05-14T15:24:02;23.00;56.80
15328;DHT22;7764;51.430;6.840;2023-05-14T15:26:29;23.00;56.80
15328;DHT22;7764;51.430;6.840;2023-05-14T15:28:57;22.90;57.10
15328;DHT22;7764;51.430;6.840;2023-05-14T15:31:24;23.00;56.50
15328;DHT22;7764;51.430;6.840;2023-05-14T15:33:52;22.90;56.10
15328;DHT22;7764;51.430;6.840;2023-05-14T15:36:20;22.90;56.70
15328;DHT22;7764;51.430;6.840;2023-05-14T15:38:47;22.90;55.90
15328;DHT22;7764;51.430;6.840;2023-05-14T15:41:16;23.00;56.80
15328;DHT22;7764;51.430;6.840;2023-05-14T15:43:42;23.10;56.90
15328;DHT22;7764;51.430;6.840;2023-05-14T15:46:10;23.00;56.80